sensor_id;sensor_type;location;lat;lon;timestamp;temperature;humidity
292;DHT22;23311;48.776;9.162;2023-04-09T00:01:02;7.60;95.50
292;DHT22;23311;48.776;9.162;2023-04-09T00:03:32;7.50;95.50
292;DHT22;23311;48.776;9.162;2023-04-09T00:06:01;7.50;95.50
292;DHT22;23311;48.776;9.162;2023-04-09T00:08:29;7.50;95.50
292;DHT22;23311;48.776;9.162;2023-04-09T00:10:58;7.50;95.50
292;DHT22;23311;48.776;9.162;2023-04-09T00:13:26;7.50;95.50
292;DHT22;23311;48.776;9.162;2023-04-09T00:15:57;7.60;95.50
292;DHT22;23311;48.776;9.162;2023-04-09T00:18:25;7.60;95.50
292;DHT22;23311;48.776;9.162;2023-04-09T00:20:55;7.70;95.50
292;DHT22;23311;48.776;9.162;2023-04-09T00:23:23;7.80;95.50
292;DHT22;23311;48.776;9.162;2023-04-09T00:25:51;7.80;95.50
292;DHT22;23311;48.776;9.162;2023-04-09T00:28:19;7.70;95.50
292;DHT22;23311;48.776;9.162;2023-04-09T00:30:47;7.60;95.50
292;DHT22;23311;48.776;9.162;2023-04-09T00:33:15;7.50;95.50
292;DHT22;23311;48.776;9.162;2023-04-09T00:35:43;7.50;95.50
292;DHT22;23311;48.776;9.162;2023-04-09T00:38:13;7.60;95.50
292;DHT22;23311;48.776;9.162;2023-04-09T00:40:42;7.70;95.50
292;DHT22;23311;48.776;9.162;2023-04-09T00:43:10;7.70;95.50
292;DHT22;23311;48.776;9.162;2023-04-09T00:45:38;7.60;95.50
292;DHT22;23311;48.776;9.162;2023-04-09T00:48:06;7.70;95.50
292;DHT22;23311;48.776;9.162;2023-04-09T00:50:34;7.60;95.50
292;DHT22;23311;48.776;9.162;2023-04-09T00:53:04;7.60;95.50
292;DHT22;23311;48.776;9.162;2023-04-09T00:55:35;7.50;95.50
292;DHT22;23311;48.776;9.162;2023-04-09T00:58:03;7.50;95.50
292;DHT22;23311;48.776;9.162;2023-04-09T01:00:31;7.50;95.50
292;DHT22;23311;48.776;9.162;2023-04-09T01:02:59;7.60;95.50
292;DHT22;23311;48.776;9.162;2023-04-09T01:05:33;7.50;95.50
292;DHT22;23311;48.776;9.162;2023-04-09T01:08:10;7.50;95.50
292;DHT22;23311;48.776;9.162;2023-04-09T01:10:44;7.50;95.50
292;DHT22;23311;48.776;9.162;2023-04-09T01:13:17;7.60;95.50
292;DHT22;23311;48.776;9.162;2023-04-09T01:15:48;7.60;95.50
292;DHT22;23311;48.776;9.162;2023-04-09T01:18:22;7.60;95.50
292;DHT22;23311;48.776;9.162;2023-04-09T01:20:57;7.60;95.50
292;DHT22;23311;48.776;9.162;2023-04-09T01:23:34;7.60;95.50
292;DHT22;23311;48.776;9.162;2023-04-09T01:26:10;7.60;95.50
292;DHT22;23311;48.776;9.162;2023-04-09T01:28:49;7.70;95.50
292;DHT22;23311;48.776;9.162;2023-04-09T01:31:25;7.70;95.50
292;DHT22;23311;48.776;9.162;2023-04-09T01:33:55;7.70;95.50
292;DHT22;23311;48.776;9.162;2023-04-09T01:36:25;7.70;95.50
292;DHT22;23311;48.776;9.162;2023-04-09T01:38:55;7.60;95.50
292;DHT22;23311;48.776;9.162;2023-04-09T01:41:24;7.60;95.50
292;DHT22;23311;48.776;9.162;2023-04-09T01:43:54;7.50;95.50
292;DHT22;23311;48.776;9.162;2023-04-09T01:46:24;7.50;95.50
292;DHT22;23311;48.776;9.162;2023-04-09T01:48:54;7.60;95.50
292;DHT22;23311;48.776;9.162;2023-04-09T01:51:22;7.60;95.50
292;DHT22;23311;48.776;9.162;2023-04-09T01:53:52;7.60;95.50
292;DHT22;23311;48.776;9.162;2023-04-09T01:56:20;7.50;95.50
292;DHT22;23311;48.776;9.162;2023-04-09T01:58:48;7.40;95.50
292;DHT22;23311;48.776;9.162;2023-04-09T02:01:23;7.40;95.50
292;DHT22;23311;48.776;9.162;2023-04-09T02:03:56;7.30;95.50
292;DHT22;23311;48.776;9.162;2023-04-09T02:06:30;7.30;95.50
292;DHT22;23311;48.776;9.162;2023-04-09T02:09:00;7.30;95.50
292;DHT22;23311;48.776;9.162;2023-04-09T02:11:31;7.40;95.50
292;DHT22;23311;48.776;9.162;2023-04-09T02:14:00;7.30;95.50
292;DHT22;23311;48.776;9.162;2023-04-09T02:16:32;7.30;95.50
292;DHT22;23311;48.776;9.162;2023-04-09T02:19:03;7.30;95.50
292;DHT22;23311;48.776;9.162;2023-04-09T02:21:31;7.20;95.50
292;DHT22;23311;48.776;9.162;2023-04-09T02:23:59;7.30;95.50
292;DHT22;23311;48.776;9.162;2023-04-09T02:26:27;7.20;95.50
292;DHT22;23311;48.776;9.162;2023-04-09T02:28:55;7.20;95.50
292;DHT22;23311;48.776;9.162;2023-04-09T02:31:23;7.20;95.50
292;DHT22;23311;48.776;9.162;2023-04-09T02:33:52;7.30;95.50
292;DHT22;23311;48.776;9.162;2023-04-09T02:36:21;7.30;95.50
292;DHT22;23311;48.776;9.162;2023-04-09T02:38:49;7.30;95.50
292;DHT22;23311;48.776;9.162;2023-04-09T02:41:17;7.30;95.50
292;DHT22;23311;48.776;9.162;2023-04-09T02:43:45;7.20;95.50
292;DHT22;23311;48.776;9.162;2023-04-09T02:46:13;7.10;95.50
292;DHT22;23311;48.776;9.162;2023-04-09T02:48:42;7.00;95.50
292;DHT22;23311;48.776;9.162;2023-04-09T02:51:11;7.00;95.50
292;DHT22;23311;48.776;9.162;2023-04-09T02:53:39;6.80;95.50
292;DHT22;23311;48.776;9.162;2023-04-09T02:56:07;6.80;95.50
292;DHT22;23311;48.776;9.162;2023-04-09T02:58:35;6.80;95.50
292;DHT22;23311;48.776;9.162;2023-04-09T03:01:03;6.80;95.50
292;DHT22;23311;48.776;9.162;2023-04-09T03:03:31;6.80;95.50
292;DHT22;23311;48.776;9.162;2023-04-09T03:06:00;6.80;95.50
292;DHT22;23311;48.776;9.162;2023-04-09T03:08:29;6.80;95.50
292;DHT22;23311;48.776;9.162;2023-04-09T03:10:57;6.80;95.50
292;DHT22;23311;48.776;9.162;2023-04-09T03:13:26;6.70;95.50
292;DHT22;23311;48.776;9.162;2023-04-09T03:15:54;6.70;95.50
292;DHT22;23311;48.776;9.162;2023-04-09T03:18:22;6.80;95.50
292;DHT22;23311;48.776;9.162;2023-04-09T03:20:50;6.80;95.50
292;DHT22;23311;48.776;9.162;2023-04-09T03:23:18;6.90;95.50
292;DHT22;23311;48.776;9.162;2023-04-09T03:25:48;6.90;95.50
292;DHT22;23311;48.776;9.162;2023-04-09T03:28:16;6.90;95.50
292;DHT22;23311;48.776;9.162;2023-04-09T03:30:44;6.90;95.50
292;DHT22;23311;48.776;9.162;2023-04-09T03:33:12;6.90;95.50
292;DHT22;23311;48.776;9.162;2023-04-09T03:35:40;6.90;95.50
292;DHT22;23311;48.776;9.162;2023-04-09T03:38:09;6.90;95.50
292;DHT22;23311;48.776;9.162;2023-04-09T03:40:37;6.80;95.50
292;DHT22;23311;48.776;9.162;2023-04-09T03:43:06;6.80;95.50
292;DHT22;23311;48.776;9.162;2023-04-09T03:45:34;6.80;95.50
292;DHT22;23311;48.776;9.162;2023-04-09T03:48:02;6.80;95.50
292;DHT22;23311;48.776;9.162;2023-04-09T03:50:30;6.80;95.50
292;DHT22;23311;48.776;9.162;2023-04-09T03:52:58;6.80;95.50
292;DHT22;23311;48.776;9.162;2023-04-09T03:55:26;6.80;95.50
292;DHT22;23311;48.776;9.162;2023-04-09T03:57:54;6.80;95.50
292;DHT22;23311;48.776;9.162;2023-04-09T04:00:23;6.80;95.50
292;DHT22;23311;48.776;9.162;2023-04-09T04:02:51;6.70;95.50
292;DHT22;23311;48.776;9.162;2023-04-09T04:05:22;6.70;95.50
292;DHT22;23311;48.776;9.162;2023-04-09T04:07:50;6.70;95.50
292;DHT22;23311;48.776;9.162;2023-04-09T04:10:18;6.70;95.50
292;DHT22;23311;48.776;9.162;2023-04-09T04:12:46;6.60;95.50
292;DHT22;23311;48.776;9.162;2023-04-09T04:15:15;6.60;95.50
292;DHT22;23311;48.776;9.162;2023-04-09T04:17:44;6.60;95.50
292;DHT22;23311;48.776;9.162;2023-04-09T04:20:12;6.60;95.50
292;DHT22;23311;48.776;9.162;2023-04-09T04:22:40;6.60;95.50
292;DHT22;23311;48.776;9.162;2023-04-09T04:25:09;6.60;95.50
292;DHT22;23311;48.776;9.162;2023-04-09T04:27:40;6.50;95.50
292;DHT22;23311;48.776;9.162;2023-04-09T04:30:08;6.50;95.50
292;DHT22;23311;48.776;9.162;2023-04-09T04:32:36;6.50;95.50
292;DHT22;23311;48.776;9.162;2023-04-09T04:35:07;6.60;95.50
292;DHT22;23311;48.776;9.162;2023-04-09T04:37:35;6.70;95.50
292;DHT22;23311;48.776;9.162;2023-04-09T04:40:04;6.70;95.50
292;DHT22;23311;48.776;9.162;2023-04-09T04:42:32;6.60;95.50
292;DHT22;23311;48.776;9.162;2023-04-09T04:45:00;6.60;95.50
292;DHT22;23311;48.776;9.162;2023-04-09T04:47:28;6.50;95.50
292;DHT22;23311;48.776;9.162;2023-04-09T04:49:56;6.40;95.50
292;DHT22;23311;48.776;9.162;2023-04-09T04:52:25;6.40;95.50
292;DHT22;23311;48.776;9.162;2023-04-09T04:54:53;6.40;95.50
292;DHT22;23311;48.776;9.162;2023-04-09T04:57:21;6.50;95.50
292;DHT22;23311;48.776;9.162;2023-04-09T04:59:49;6.60;95.50
292;DHT22;23311;48.776;9.162;2023-04-09T05:02:17;6.60;95.50
292;DHT22;23311;48.776;9.162;2023-04-09T05:04:46;6.70;95.50
292;DHT22;23311;48.776;9.162;2023-04-09T05:07:14;6.70;95.50
292;DHT22;23311;48.776;9.162;2023-04-09T05:09:43;6.70;95.50
292;DHT22;23311;48.776;9.162;2023-04-09T05:12:12;6.70;95.50
292;DHT22;23311;48.776;9.162;2023-04-09T05:14:41;6.70;95.50
292;DHT22;23311;48.776;9.162;2023-04-09T05:17:09;6.60;95.50
292;DHT22;23311;48.776;9.162;2023-04-09T05:19:37;6.60;95.50
292;DHT22;23311;48.776;9.162;2023-04-09T05:22:05;6.60;95.50
292;DHT22;23311;48.776;9.162;2023-04-09T05:24:33;6.70;95.50
292;DHT22;23311;48.776;9.162;2023-04-09T05:27:02;6.80;95.50
292;DHT22;23311;48.776;9.162;2023-04-09T05:29:30;6.80;95.50
292;DHT22;23311;48.776;9.162;2023-04-09T05:31:58;7.00;95.50
292;DHT22;23311;48.776;9.162;2023-04-09T05:34:27;7.00;95.50
292;DHT22;23311;48.776;9.162;2023-04-09T05:36:55;7.10;95.50
292;DHT22;23311;48.776;9.162;2023-04-09T05:39:23;7.10;95.50
292;DHT22;23311;48.776;9.162;2023-04-09T05:41:51;7.20;95.50
292;DHT22;23311;48.776;9.162;2023-04-09T05:44:20;7.20;95.50
292;DHT22;23311;48.776;9.162;2023-04-09T05:46:48;7.30;95.50
292;DHT22;23311;48.776;9.162;2023-04-09T05:49:16;7.50;95.50
292;DHT22;23311;48.776;9.162;2023-04-09T05:51:44;7.50;95.50
292;DHT22;23311;48.776;9.162;2023-04-09T05:54:12;7.60;95.50
292;DHT22;23311;48.776;9.162;2023-04-09T05:56:41;7.70;95.50
292;DHT22;23311;48.776;9.162;2023-04-09T05:59:10;7.80;95.50
292;DHT22;23311;48.776;9.162;2023-04-09T06:01:39;7.90;95.50
292;DHT22;23311;48.776;9.162;2023-04-09T06:04:07;8.10;95.50
292;DHT22;23311;48.776;9.162;2023-04-09T06:06:37;8.10;95.50
292;DHT22;23311;48.776;9.162;2023-04-09T06:09:05;8.20;95.50
292;DHT22;23311;48.776;9.162;2023-04-09T06:11:33;8.60;95.50
292;DHT22;23311;48.776;9.162;2023-04-09T06:14:01;9.00;95.50
292;DHT22;23311;48.776;9.162;2023-04-09T06:16:29;9.20;95.50
292;DHT22;23311;48.776;9.162;2023-04-09T06:18:58;9.40;95.50
292;DHT22;23311;48.776;9.162;2023-04-09T06:21:26;9.40;95.50
292;DHT22;23311;48.776;9.162;2023-04-09T06:23:54;9.10;95.50
292;DHT22;23311;48.776;9.162;2023-04-09T06:26:22;9.00;95.50
292;DHT22;23311;48.776;9.162;2023-04-09T06:28:50;8.90;95.50
292;DHT22;23311;48.776;9.162;2023-04-09T06:31:19;8.70;95.50
292;DHT22;23311;48.776;9.162;2023-04-09T06:33:47;8.60;95.50
292;DHT22;23311;48.776;9.162;2023-04-09T06:36:17;8.60;95.50
292;DHT22;23311;48.776;9.162;2023-04-09T06:38:45;8.60;95.50
292;DHT22;23311;48.776;9.162;2023-04-09T06:41:13;8.70;95.50
292;DHT22;23311;48.776;9.162;2023-04-09T06:43:41;8.70;95.50
292;DHT22;23311;48.776;9.162;2023-04-09T06:46:09;8.70;95.50
292;DHT22;23311;48.776;9.162;2023-04-09T06:48:37;8.80;95.50
292;DHT22;23311;48.776;9.162;2023-04-09T06:51:06;8.90;95.50
292;DHT22;23311;48.776;9.162;2023-04-09T06:53:37;8.90;95.50
292;DHT22;23311;48.776;9.162;2023-04-09T06:56:05;9.00;95.50
292;DHT22;23311;48.776;9.162;2023-04-09T06:58:33;9.00;95.50
292;DHT22;23311;48.776;9.162;2023-04-09T07:01:02;8.90;95.50
292;DHT22;23311;48.776;9.162;2023-04-09T07:03:30;9.00;95.50
292;DHT22;23311;48.776;9.162;2023-04-09T07:05:58;9.20;95.50
292;DHT22;23311;48.776;9.162;2023-04-09T07:08:26;9.30;95.50
292;DHT22;23311;48.776;9.162;2023-04-09T07:10:56;9.50;95.50
292;DHT22;23311;48.776;9.162;2023-04-09T07:13:24;9.80;95.50
292;DHT22;23311;48.776;9.162;2023-04-09T07:15:59;10.90;95.50
292;DHT22;23311;48.776;9.162;2023-04-09T07:18:27;12.10;94.40
292;DHT22;23311;48.776;9.162;2023-04-09T07:20:55;13.30;90.90
292;DHT22;23311;48.776;9.162;2023-04-09T07:23:24;14.60;87.20
292;DHT22;23311;48.776;9.162;2023-04-09T07:25:53;15.90;83.80
292;DHT22;23311;48.776;9.162;2023-04-09T07:28:22;17.10;80.20
292;DHT22;23311;48.776;9.162;2023-04-09T07:30:50;17.00;78.50
292;DHT22;23311;48.776;9.162;2023-04-09T07:33:19;16.80;79.40
292;DHT22;23311;48.776;9.162;2023-04-09T07:35:47;17.60;77.80
292;DHT22;23311;48.776;9.162;2023-04-09T07:38:15;18.30;75.20
292;DHT22;23311;48.776;9.162;2023-04-09T07:40:43;18.70;73.80
292;DHT22;23311;48.776;9.162;2023-04-09T07:43:13;18.40;74.40
292;DHT22;23311;48.776;9.162;2023-04-09T07:45:42;18.20;73.40
292;DHT22;23311;48.776;9.162;2023-04-09T07:48:11;18.50;73.20
292;DHT22;23311;48.776;9.162;2023-04-09T07:50:39;18.80;72.80
292;DHT22;23311;48.776;9.162;2023-04-09T07:53:08;19.80;70.00
292;DHT22;23311;48.776;9.162;2023-04-09T07:55:36;20.10;67.90
292;DHT22;23311;48.776;9.162;2023-04-09T07:58:04;19.30;67.30
292;DHT22;23311;48.776;9.162;2023-04-09T08:00:33;16.50;71.50
292;DHT22;23311;48.776;9.162;2023-04-09T08:03:02;14.00;78.50
292;DHT22;23311;48.776;9.162;2023-04-09T08:05:31;12.60;83.90
292;DHT22;23311;48.776;9.162;2023-04-09T08:07:59;11.90;87.30
292;DHT22;23311;48.776;9.162;2023-04-09T08:10:26;12.00;88.70
292;DHT22;23311;48.776;9.162;2023-04-09T08:12:55;13.70;85.00
292;DHT22;23311;48.776;9.162;2023-04-09T08:15:23;14.30;81.50
292;DHT22;23311;48.776;9.162;2023-04-09T08:17:51;13.60;82.60
292;DHT22;23311;48.776;9.162;2023-04-09T08:20:20;14.30;81.90
292;DHT22;23311;48.776;9.162;2023-04-09T08:22:48;15.10;79.00
292;DHT22;23311;48.776;9.162;2023-04-09T08:25:17;15.60;77.80
292;DHT22;23311;48.776;9.162;2023-04-09T08:27:45;17.00;76.00
292;DHT22;23311;48.776;9.162;2023-04-09T08:30:13;17.80;73.00
292;DHT22;23311;48.776;9.162;2023-04-09T08:32:44;19.40;70.40
292;DHT22;23311;48.776;9.162;2023-04-09T08:35:12;20.40;66.00
292;DHT22;23311;48.776;9.162;2023-04-09T08:37:43;19.70;64.80
292;DHT22;23311;48.776;9.162;2023-04-09T08:40:11;19.20;65.60
292;DHT22;23311;48.776;9.162;2023-04-09T08:42:43;20.20;66.10
292;DHT22;23311;48.776;9.162;2023-04-09T08:45:12;20.30;65.90
292;DHT22;23311;48.776;9.162;2023-04-09T08:47:41;20.10;65.70
292;DHT22;23311;48.776;9.162;2023-04-09T08:50:10;20.80;63.20
292;DHT22;23311;48.776;9.162;2023-04-09T08:52:38;19.70;64.00
292;DHT22;23311;48.776;9.162;2023-04-09T08:55:10;19.80;63.40
292;DHT22;23311;48.776;9.162;2023-04-09T08:57:39;20.60;63.00
292;DHT22;23311;48.776;9.162;2023-04-09T09:00:08;19.80;63.40
292;DHT22;23311;48.776;9.162;2023-04-09T09:02:36;18.60;65.80
292;DHT22;23311;48.776;9.162;2023-04-09T09:05:06;18.50;67.00
292;DHT22;23311;48.776;9.162;2023-04-09T09:07:34;19.60;64.70
292;DHT22;23311;48.776;9.162;2023-04-09T09:10:02;19.60;64.00
292;DHT22;23311;48.776;9.162;2023-04-09T09:12:36;18.40;65.80
292;DHT22;23311;48.776;9.162;2023-04-09T09:15:24;18.10;67.00
292;DHT22;23311;48.776;9.162;2023-04-09T09:17:53;18.70;65.80
292;DHT22;23311;48.776;9.162;2023-04-09T09:20:22;19.80;62.80
292;DHT22;23311;48.776;9.162;2023-04-09T09:22:52;20.70;62.40
292;DHT22;23311;48.776;9.162;2023-04-09T09:25:21;20.90;61.60
292;DHT22;23311;48.776;9.162;2023-04-09T09:27:53;20.40;62.40
292;DHT22;23311;48.776;9.162;2023-04-09T09:30:23;20.80;61.80
292;DHT22;23311;48.776;9.162;2023-04-09T09:32:52;21.00;61.90
292;DHT22;23311;48.776;9.162;2023-04-09T09:35:21;21.30;61.20
292;DHT22;23311;48.776;9.162;2023-04-09T09:38:00;20.60;61.40
292;DHT22;23311;48.776;9.162;2023-04-09T09:40:29;21.00;61.00
292;DHT22;23311;48.776;9.162;2023-04-09T09:42:59;19.70;60.50
292;DHT22;23311;48.776;9.162;2023-04-09T09:45:28;19.60;61.30
292;DHT22;23311;48.776;9.162;2023-04-09T09:47:57;19.20;60.70
292;DHT22;23311;48.776;9.162;2023-04-09T09:50:25;19.20;61.60
292;DHT22;23311;48.776;9.162;2023-04-09T09:53:01;19.10;61.00
292;DHT22;23311;48.776;9.162;2023-04-09T09:55:31;19.90;60.90
292;DHT22;23311;48.776;9.162;2023-04-09T09:58:02;20.00;61.40
292;DHT22;23311;48.776;9.162;2023-04-09T10:00:32;20.00;60.80
292;DHT22;23311;48.776;9.162;2023-04-09T10:03:07;19.20;61.40
292;DHT22;23311;48.776;9.162;2023-04-09T10:05:38;19.00;61.40
292;DHT22;23311;48.776;9.162;2023-04-09T10:08:08;19.20;59.60
292;DHT22;23311;48.776;9.162;2023-04-09T10:10:38;18.40;59.60
292;DHT22;23311;48.776;9.162;2023-04-09T10:13:15;18.50;60.50
292;DHT22;23311;48.776;9.162;2023-04-09T10:15:44;18.20;60.50
292;DHT22;23311;48.776;9.162;2023-04-09T10:18:14;16.60;63.80
292;DHT22;23311;48.776;9.162;2023-04-09T10:20:51;15.50;66.50
292;DHT22;23311;48.776;9.162;2023-04-09T10:23:30;16.70;64.70
292;DHT22;23311;48.776;9.162;2023-04-09T10:25:59;17.80;62.40
292;DHT22;23311;48.776;9.162;2023-04-09T10:28:29;18.30;61.80
292;DHT22;23311;48.776;9.162;2023-04-09T10:30:58;18.50;60.90
292;DHT22;23311;48.776;9.162;2023-04-09T10:33:26;17.00;62.20
292;DHT22;23311;48.776;9.162;2023-04-09T10:35:59;17.70;62.30
292;DHT22;23311;48.776;9.162;2023-04-09T10:38:35;18.60;59.20
292;DHT22;23311;48.776;9.162;2023-04-09T10:41:10;17.60;60.10
292;DHT22;23311;48.776;9.162;2023-04-09T10:43:42;16.40;61.30
292;DHT22;23311;48.776;9.162;2023-04-09T10:46:25;17.50;61.70
292;DHT22;23311;48.776;9.162;2023-04-09T10:49:10;16.70;60.60
292;DHT22;23311;48.776;9.162;2023-04-09T10:51:40;15.30;63.80
292;DHT22;23311;48.776;9.162;2023-04-09T10:54:37;14.50;66.00
292;DHT22;23311;48.776;9.162;2023-04-09T10:57:10;14.00;67.80
292;DHT22;23311;48.776;9.162;2023-04-09T10:59:41;13.80;67.30
292;DHT22;23311;48.776;9.162;2023-04-09T11:02:40;13.70;67.60
292;DHT22;23311;48.776;9.162;2023-04-09T11:05:31;14.80;66.40
292;DHT22;23311;48.776;9.162;2023-04-09T11:08:04;16.00;60.90
292;DHT22;23311;48.776;9.162;2023-04-09T11:10:33;15.40;61.30
292;DHT22;23311;48.776;9.162;2023-04-09T11:13:02;14.80;64.40
292;DHT22;23311;48.776;9.162;2023-04-09T11:15:34;14.20;66.40
292;DHT22;23311;48.776;9.162;2023-04-09T11:18:02;14.20;66.80
292;DHT22;23311;48.776;9.162;2023-04-09T11:20:33;14.50;66.70
292;DHT22;23311;48.776;9.162;2023-04-09T11:23:01;14.80;66.40
292;DHT22;23311;48.776;9.162;2023-04-09T11:25:30;14.60;66.20
292;DHT22;23311;48.776;9.162;2023-04-09T11:28:01;14.40;66.90
292;DHT22;23311;48.776;9.162;2023-04-09T11:30:31;14.20;68.50
292;DHT22;23311;48.776;9.162;2023-04-09T11:33:01;14.10;68.80
292;DHT22;23311;48.776;9.162;2023-04-09T11:35:29;14.90;67.90
292;DHT22;23311;48.776;9.162;2023-04-09T11:37:57;15.40;66.70
292;DHT22;23311;48.776;9.162;2023-04-09T11:40:27;14.70;67.00
292;DHT22;23311;48.776;9.162;2023-04-09T11:42:55;14.30;68.30
292;DHT22;23311;48.776;9.162;2023-04-09T11:45:26;15.30;67.80
292;DHT22;23311;48.776;9.162;2023-04-09T11:47:56;15.60;66.60
292;DHT22;23311;48.776;9.162;2023-04-09T11:50:24;15.80;66.10
292;DHT22;23311;48.776;9.162;2023-04-09T11:52:53;16.20;65.50
292;DHT22;23311;48.776;9.162;2023-04-09T11:55:25;17.20;63.70
292;DHT22;23311;48.776;9.162;2023-04-09T11:57:55;18.00;62.30
292;DHT22;23311;48.776;9.162;2023-04-09T12:00:24;18.50;61.20
292;DHT22;23311;48.776;9.162;2023-04-09T12:03:00;17.40;62.50
292;DHT22;23311;48.776;9.162;2023-04-09T12:05:31;18.40;60.70
292;DHT22;23311;48.776;9.162;2023-04-09T12:08:01;18.20;60.10
292;DHT22;23311;48.776;9.162;2023-04-09T12:10:33;17.90;60.80
292;DHT22;23311;48.776;9.162;2023-04-09T12:13:03;18.30;60.50
292;DHT22;23311;48.776;9.162;2023-04-09T12:15:33;18.90;59.30
292;DHT22;23311;48.776;9.162;2023-04-09T12:18:06;19.10;58.60
292;DHT22;23311;48.776;9.162;2023-04-09T12:20:35;19.70;58.10
292;DHT22;23311;48.776;9.162;2023-04-09T12:23:06;19.70;57.30
292;DHT22;23311;48.776;9.162;2023-04-09T12:25:35;19.20;58.10
292;DHT22;23311;48.776;9.162;2023-04-09T12:28:04;19.10;58.60
292;DHT22;23311;48.776;9.162;2023-04-09T12:30:33;19.00;58.90
292;DHT22;23311;48.776;9.162;2023-04-09T12:33:03;19.10;58.70
292;DHT22;23311;48.776;9.162;2023-04-09T12:35:34;19.60;57.60
292;DHT22;23311;48.776;9.162;2023-04-09T12:38:04;19.30;57.90
292;DHT22;23311;48.776;9.162;2023-04-09T12:40:33;18.50;58.70
292;DHT22;23311;48.776;9.162;2023-04-09T12:43:01;18.50;59.40
292;DHT22;23311;48.776;9.162;2023-04-09T12:45:30;19.40;58.10
292;DHT22;23311;48.776;9.162;2023-04-09T12:47:58;19.20;57.80
292;DHT22;23311;48.776;9.162;2023-04-09T12:50:28;19.10;57.70
292;DHT22;23311;48.776;9.162;2023-04-09T12:52:56;19.10;57.80
292;DHT22;23311;48.776;9.162;2023-04-09T12:55:24;18.90;58.60
292;DHT22;23311;48.776;9.162;2023-04-09T12:57:52;18.90;58.30
292;DHT22;23311;48.776;9.162;2023-04-09T13:00:20;18.80;58.90
292;DHT22;23311;48.776;9.162;2023-04-09T13:02:48;18.70;59.10
292;DHT22;23311;48.776;9.162;2023-04-09T13:05:18;18.60;59.00
292;DHT22;23311;48.776;9.162;2023-04-09T13:07:48;17.90;60.00
292;DHT22;23311;48.776;9.162;2023-04-09T13:10:17;17.90;60.80
292;DHT22;23311;48.776;9.162;2023-04-09T13:12:45;18.10;59.90
292;DHT22;23311;48.776;9.162;2023-04-09T13:15:13;18.60;59.50
292;DHT22;23311;48.776;9.162;2023-04-09T13:17:41;18.80;58.10
292;DHT22;23311;48.776;9.162;2023-04-09T13:20:09;19.00;57.90
292;DHT22;23311;48.776;9.162;2023-04-09T13:22:37;19.40;57.50
292;DHT22;23311;48.776;9.162;2023-04-09T13:25:09;19.50;57.30
292;DHT22;23311;48.776;9.162;2023-04-09T13:27:40;20.40;56.30
292;DHT22;23311;48.776;9.162;2023-04-09T13:30:08;19.80;56.20
292;DHT22;23311;48.776;9.162;2023-04-09T13:32:37;19.30;56.80
292;DHT22;23311;48.776;9.162;2023-04-09T13:35:06;19.20;57.20
292;DHT22;23311;48.776;9.162;2023-04-09T13:37:34;19.50;57.30
292;DHT22;23311;48.776;9.162;2023-04-09T13:40:03;19.10;57.50
292;DHT22;23311;48.776;9.162;2023-04-09T13:42:32;19.00;57.60
292;DHT22;23311;48.776;9.162;2023-04-09T13:45:00;18.50;58.10
292;DHT22;23311;48.776;9.162;2023-04-09T13:47:32;18.90;57.90
292;DHT22;23311;48.776;9.162;2023-04-09T13:50:00;18.80;57.50
292;DHT22;23311;48.776;9.162;2023-04-09T13:52:28;18.70;57.90
292;DHT22;23311;48.776;9.162;2023-04-09T13:54:56;18.80;57.70
292;DHT22;23311;48.776;9.162;2023-04-09T13:57:24;19.00;57.40
292;DHT22;23311;48.776;9.162;2023-04-09T13:59:54;18.50;57.70
292;DHT22;23311;48.776;9.162;2023-04-09T14:02:22;18.70;58.10
292;DHT22;23311;48.776;9.162;2023-04-09T14:04:50;18.90;57.30
292;DHT22;23311;48.776;9.162;2023-04-09T14:07:18;19.00;57.10
292;DHT22;23311;48.776;9.162;2023-04-09T14:09:46;19.90;56.20
292;DHT22;23311;48.776;9.162;2023-04-09T14:12:16;19.40;56.40
292;DHT22;23311;48.776;9.162;2023-04-09T14:14:44;18.90;56.60
292;DHT22;23311;48.776;9.162;2023-04-09T14:17:14;18.80;57.10
292;DHT22;23311;48.776;9.162;2023-04-09T14:19:42;19.10;56.40
292;DHT22;23311;48.776;9.162;2023-04-09T14:22:10;19.00;56.20
292;DHT22;23311;48.776;9.162;2023-04-09T14:24:38;19.00;56.30
292;DHT22;23311;48.776;9.162;2023-04-09T14:27:06;18.70;56.90
292;DHT22;23311;48.776;9.162;2023-04-09T14:29:34;18.60;57.10
292;DHT22;23311;48.776;9.162;2023-04-09T14:32:02;19.20;56.70
292;DHT22;23311;48.776;9.162;2023-04-09T14:34:32;19.10;56.60
292;DHT22;23311;48.776;9.162;2023-04-09T14:37:00;19.10;57.20
292;DHT22;23311;48.776;9.162;2023-04-09T14:39:28;19.70;56.30
292;DHT22;23311;48.776;9.162;2023-04-09T14:41:56;19.20;56.70
292;DHT22;23311;48.776;9.162;2023-04-09T14:44:24;18.70;57.30
292;DHT22;23311;48.776;9.162;2023-04-09T14:46:52;17.90;58.70
292;DHT22;23311;48.776;9.162;2023-04-09T14:49:22;18.40;58.70
292;DHT22;23311;48.776;9.162;2023-04-09T14:51:51;19.20;57.40
292;DHT22;23311;48.776;9.162;2023-04-09T14:54:20;19.50;56.70
292;DHT22;23311;48.776;9.162;2023-04-09T14:57:12;19.70;56.40
292;DHT22;23311;48.776;9.162;2023-04-09T14:59:40;20.30;55.70
292;DHT22;23311;48.776;9.162;2023-04-09T15:02:08;20.30;55.30
292;DHT22;23311;48.776;9.162;2023-04-09T15:04:38;19.70;56.00
292;DHT22;23311;48.776;9.162;2023-04-09T15:07:08;19.50;56.40
292;DHT22;23311;48.776;9.162;2023-04-09T15:09:36;18.70;57.60
292;DHT22;23311;48.776;9.162;2023-04-09T15:12:05;18.70;57.40
292;DHT22;23311;48.776;9.162;2023-04-09T15:14:34;18.80;57.60
292;DHT22;23311;48.776;9.162;2023-04-09T15:17:03;18.90;58.00
292;DHT22;23311;48.776;9.162;2023-04-09T15:19:31;19.00;58.00
292;DHT22;23311;48.776;9.162;2023-04-09T15:21:59;19.50;56.90
292;DHT22;23311;48.776;9.162;2023-04-09T15:24:29;19.40;57.30
292;DHT22;23311;48.776;9.162;2023-04-09T15:26:57;19.30;57.30
292;DHT22;23311;48.776;9.162;2023-04-09T15:29:25;18.80;57.80
292;DHT22;23311;48.776;9.162;2023-04-09T15:31:54;18.50;58.00
292;DHT22;23311;48.776;9.162;2023-04-09T15:34:22;18.50;57.90
292;DHT22;23311;48.776;9.162;2023-04-09T15:36:51;18.00;58.10
292;DHT22;23311;48.776;9.162;2023-04-09T15:39:20;17.80;58.50
292;DHT22;23311;48.776;9.162;2023-04-09T15:41:51;17.80;58.80
292;DHT22;23311;48.776;9.162;2023-04-09T15:44:19;18.00;58.50
292;DHT22;23311;48.776;9.162;2023-04-09T15:46:47;18.00;58.80
292;DHT22;23311;48.776;9.162;2023-04-09T15:49:18;17.90;58.90
292;DHT22;23311;48.776;9.162;2023-04-09T15:51:46;18.20;58.90
292;DHT22;23311;48.776;9.162;2023-04-09T15:54:15;18.50;58.50
292;DHT22;23311;48.776;9.162;2023-04-09T15:56:43;17.60;59.20
292;DHT22;23311;48.776;9.162;2023-04-09T15:59:12;17.10;60.30
292;DHT22;23311;48.776;9.162;2023-04-09T16:01:42;16.30;61.70
292;DHT22;23311;48.776;9.162;2023-04-09T16:04:10;16.30;62.40
292;DHT22;23311;48.776;9.162;2023-04-09T16:06:41;16.70;61.90
292;DHT22;23311;48.776;9.162;2023-04-09T16:09:10;17.00;61.30
292;DHT22;23311;48.776;9.162;2023-04-09T16:11:38;17.00;61.00
292;DHT22;23311;48.776;9.162;2023-04-09T16:14:06;16.60;61.30
292;DHT22;23311;48.776;9.162;2023-04-09T16:16:36;16.60;61.60
292;DHT22;23311;48.776;9.162;2023-04-09T16:19:05;16.90;61.20
292;DHT22;23311;48.776;9.162;2023-04-09T16:21:33;17.20;60.80
292;DHT22;23311;48.776;9.162;2023-04-09T16:24:01;17.60;60.40